createdAt,value
2023-01-17T00:00:34.862Z,59.09
2023-01-17T00:02:37.772Z,59.55
2023-01-17T00:04:59.159Z,59.72
2023-01-17T00:07:19.654Z,60.02
2023-01-17T00:09:39.789Z,60.80
2023-01-17T00:11:42.868Z,60.68
2023-01-17T00:13:45.693Z,61.29
2023-01-17T00:15:48.428Z,61.95
2023-01-17T00:17:54.294Z,61.87
2023-01-17T00:20:18.654Z,61.65
2023-01-17T00:22:42.386Z,61.47
2023-01-17T00:25:02.535Z,61.70
2023-01-17T00:27:13.371Z,61.86
2023-01-17T00:29:14.853Z,62.02
2023-01-17T00:31:16.835Z,62.43
2023-01-17T00:33:18.782Z,62.13
2023-01-17T00:35:22.644Z,63.02
2023-01-17T00:37:24.158Z,64.12
2023-01-17T00:39:25.674Z,63.56
2023-01-17T00:41:28.852Z,64.34
2023-01-17T00:43:50.302Z,64.23
2023-01-17T00:46:11.261Z,64.25
2023-01-17T00:48:31.529Z,64.58
2023-01-17T00:50:55.637Z,64.38
2023-01-17T00:53:15.561Z,64.52
2023-01-17T00:55:35.669Z,64.78
2023-01-17T00:57:56.002Z,64.39
2023-01-17T01:00:17.022Z,64.52
2023-01-17T01:02:37.679Z,64.29
2023-01-17T01:04:58.165Z,64.17
2023-01-17T01:07:19.867Z,64.32
2023-01-17T01:09:40.108Z,63.25
2023-01-17T01:12:00.426Z,62.73
2023-01-17T01:14:21.444Z,63.28
2023-01-17T01:16:41.573Z,62.96
2023-01-17T01:19:01.870Z,62.34
2023-01-17T01:21:22.390Z,63.21
2023-01-17T01:23:43.779Z,63.32
2023-01-17T01:26:03.991Z,62.42
2023-01-17T01:28:25.597Z,63.21
2023-01-17T01:30:45.488Z,64.34
2023-01-17T01:33:05.708Z,65.81
2023-01-17T01:35:08.867Z,66.84
2023-01-17T01:37:11.512Z,67.49
2023-01-17T01:39:15.479Z,68.29
2023-01-17T01:41:18.668Z,68.61
2023-01-17T01:43:23.199Z,69.10
2023-01-17T01:45:28.560Z,69.65
2023-01-17T01:47:38.575Z,70.33
2023-01-17T01:49:41.420Z,70.49
2023-01-17T01:51:51.320Z,71.01
2023-01-17T01:53:59.772Z,70.72
2023-01-17T01:56:06.543Z,71.51
2023-01-17T01:58:14.112Z,71.38
2023-01-17T02:00:19.033Z,71.87
2023-01-17T02:02:21.752Z,71.99
2023-01-17T02:04:25.425Z,71.63
2023-01-17T02:06:35.027Z,72.28
2023-01-17T02:08:37.751Z,71.82
2023-01-17T02:10:43.947Z,71.43
2023-01-17T02:12:48.742Z,71.84
2023-01-17T02:14:51.640Z,72.17
2023-01-17T02:17:11.247Z,72.29
2023-01-17T02:19:41.640Z,72.17
2023-01-17T02:21:52.259Z,72.15
2023-01-17T02:24:24.511Z,71.98
2023-01-17T02:26:48.855Z,72.03
2023-01-17T02:29:10.747Z,72.20
2023-01-17T02:31:18.783Z,71.75
2023-01-17T02:33:30.244Z,72.09
2023-01-17T02:35:40.634Z,71.86
2023-01-17T02:37:51.481Z,71.84
2023-01-17T02:40:00.361Z,72.07
2023-01-17T02:42:07.299Z,71.63
2023-01-17T02:44:11.115Z,71.46
2023-01-17T02:46:15.087Z,71.72
2023-01-17T02:48:23.950Z,71.63
2023-01-17T02:50:32.526Z,71.76
2023-01-17T02:53:04.093Z,71.66
2023-01-17T02:55:17.062Z,71.53
2023-01-17T02:57:38.055Z,71.59
2023-01-17T02:59:47.529Z,72.39
2023-01-17T03:02:03.360Z,71.94
2023-01-17T03:04:13.281Z,71.67
2023-01-17T03:06:19.656Z,72.16
2023-01-17T03:08:22.678Z,72.00
2023-01-17T03:10:25.427Z,71.87
2023-01-17T03:12:29.698Z,71.71
2023-01-17T03:14:35.220Z,71.71
2023-01-17T03:16:38.027Z,71.26
2023-01-17T03:18:41.998Z,71.74
2023-01-17T03:20:44.662Z,71.55
2023-01-17T03:22:47.232Z,71.16
2023-01-17T03:24:49.816Z,70.65
2023-01-17T03:26:52.461Z,70.67
2023-01-17T03:28:55.044Z,70.08
2023-01-17T03:30:57.685Z,69.71
2023-01-17T03:33:00.358Z,69.54
2023-01-17T03:35:04.435Z,69.63
2023-01-17T03:37:07.284Z,69.18
2023-01-17T03:39:10.115Z,69.29
2023-01-17T03:41:12.894Z,69.20
2023-01-17T03:43:15.451Z,69.13
2023-01-17T03:45:18.145Z,68.51
2023-01-17T03:47:20.768Z,67.89
2023-01-17T03:49:23.539Z,67.87
2023-01-17T03:51:27.572Z,67.66
2023-01-17T03:53:30.156Z,66.68
2023-01-17T03:55:32.775Z,66.10
2023-01-17T03:57:35.422Z,65.72
2023-01-17T03:59:38.007Z,65.87
2023-01-17T04:01:40.769Z,65.88
2023-01-17T04:03:43.415Z,65.55
2023-01-17T04:05:45.973Z,65.05
2023-01-17T04:07:51.514Z,65.08
2023-01-17T04:09:54.629Z,63.86
2023-01-17T04:11:57.194Z,63.99
2023-01-17T04:13:59.773Z,63.54
2023-01-17T04:16:02.409Z,63.06
2023-01-17T04:18:06.162Z,63.06
2023-01-17T04:20:16.371Z,63.01
2023-01-17T04:22:18.953Z,62.78
2023-01-17T04:24:22.863Z,62.08
2023-01-17T04:26:25.461Z,62.43
2023-01-17T04:28:28.058Z,62.27
2023-01-17T04:30:31.962Z,61.90
2023-01-17T04:32:34.622Z,61.65
2023-01-17T04:34:37.244Z,61.48
2023-01-17T04:36:42.584Z,60.65
2023-01-17T04:38:45.258Z,60.62
2023-01-17T04:40:49.593Z,60.00
2023-01-17T04:42:55.201Z,60.08
2023-01-17T04:44:57.834Z,59.18
2023-01-17T04:47:02.022Z,59.21
2023-01-17T04:49:04.691Z,59.07
2023-01-17T04:51:07.534Z,59.71
2023-01-17T04:53:10.155Z,59.26
2023-01-17T04:55:12.793Z,59.31
2023-01-17T04:57:17.082Z,59.37
2023-01-17T04:59:19.667Z,59.20
2023-01-17T05:01:22.436Z,59.22
2023-01-17T05:03:25.145Z,59.63
2023-01-17T05:05:27.785Z,60.01
2023-01-17T05:07:30.460Z,60.10
2023-01-17T05:09:35.788Z,60.22
2023-01-17T05:11:38.635Z,60.23
2023-01-17T05:13:42.669Z,60.67
2023-01-17T05:15:45.730Z,60.76
2023-01-17T05:17:48.304Z,60.45
2023-01-17T05:19:51.741Z,60.59
2023-01-17T05:21:55.526Z,60.44
2023-01-17T05:23:58.130Z,60.50
2023-01-17T05:26:00.738Z,60.88
2023-01-17T05:28:04.058Z,61.13
2023-01-17T05:30:09.154Z,61.26
2023-01-17T05:32:11.740Z,61.24
2023-01-17T05:34:14.356Z,61.47
2023-01-17T05:36:16.959Z,61.36
2023-01-17T05:38:19.621Z,61.66
2023-01-17T05:40:25.928Z,61.49
2023-01-17T05:42:28.586Z,61.87
2023-01-17T05:44:31.196Z,62.49
2023-01-17T05:46:35.175Z,62.72
2023-01-17T05:48:37.741Z,62.82
2023-01-17T05:50:40.349Z,62.78
2023-01-17T05:52:43.249Z,62.88
2023-01-17T05:54:45.792Z,63.21
2023-01-17T05:56:48.363Z,62.79
2023-01-17T05:58:51.030Z,62.94
2023-01-17T06:00:54.362Z,62.78
2023-01-17T06:02:59.563Z,62.95
2023-01-17T06:05:03.529Z,62.94
2023-01-17T06:07:06.210Z,62.77
2023-01-17T06:09:08.959Z,62.86
2023-01-17T06:11:11.618Z,63.07
2023-01-17T06:13:20.837Z,63.09
2023-01-17T06:15:23.434Z,63.02
2023-01-17T06:17:26.008Z,62.75
2023-01-17T06:19:29.994Z,63.15
2023-01-17T06:21:34.608Z,63.13
2023-01-17T06:23:37.228Z,63.12
2023-01-17T06:25:41.177Z,63.08
2023-01-17T06:27:43.752Z,63.51
2023-01-17T06:29:46.400Z,63.63
2023-01-17T06:31:48.999Z,63.97
2023-01-17T06:33:51.574Z,64.16
2023-01-17T06:35:55.501Z,64.35
2023-01-17T06:37:59.788Z,64.36
2023-01-17T06:40:02.385Z,63.93
2023-01-17T06:42:05.011Z,63.78
2023-01-17T06:44:07.929Z,63.70
2023-01-17T06:46:10.541Z,63.58
2023-01-17T06:48:13.200Z,63.99
2023-01-17T06:50:16.937Z,63.61
2023-01-17T06:52:20.916Z,64.04
2023-01-17T06:54:23.558Z,64.00
2023-01-17T06:56:26.129Z,63.89
2023-01-17T06:58:28.789Z,63.72
2023-01-17T07:00:34.876Z,63.48
2023-01-17T07:02:37.589Z,63.41
2023-01-17T07:04:40.188Z,63.64
2023-01-17T07:06:42.846Z,63.29
2023-01-17T07:08:47.460Z,63.52
2023-01-17T07:10:50.326Z,63.75
2023-01-17T07:12:52.952Z,63.91
2023-01-17T07:14:55.528Z,63.98
2023-01-17T07:16:58.612Z,64.19
2023-01-17T07:19:01.180Z,64.11
2023-01-17T07:21:03.769Z,63.59
2023-01-17T07:23:07.143Z,64.10
2023-01-17T07:25:11.327Z,63.93
2023-01-17T07:27:13.942Z,64.48
2023-01-17T07:29:16.767Z,64.42
2023-01-17T07:31:19.377Z,64.98
2023-01-17T07:33:22.465Z,65.18
2023-01-17T07:35:26.669Z,65.28
2023-01-17T07:37:29.393Z,64.95
2023-01-17T07:39:31.979Z,65.20
2023-01-17T07:41:41.185Z,65.23
2023-01-17T07:43:43.849Z,65.34
2023-01-17T07:45:50.486Z,65.06
2023-01-17T07:47:53.044Z,65.33
2023-01-17T07:49:55.822Z,64.99
2023-01-17T07:51:59.254Z,64.98
2023-01-17T07:54:01.815Z,64.95
2023-01-17T07:56:06.405Z,64.94
2023-01-17T07:58:11.290Z,65.37
2023-01-17T08:00:14.799Z,65.44
2023-01-17T08:02:18.992Z,64.83
2023-01-17T08:04:21.662Z,65.23
2023-01-17T08:06:26.450Z,64.98
2023-01-17T08:08:29.565Z,64.84
2023-01-17T08:10:32.188Z,64.91
2023-01-17T08:12:35.982Z,65.20
2023-01-17T08:14:39.937Z,65.41
2023-01-17T08:16:42.591Z,64.96
2023-01-17T08:18:45.245Z,65.25
2023-01-17T08:20:47.818Z,64.75
2023-01-17T08:22:53.554Z,64.43
2023-01-17T08:24:56.139Z,64.89
2023-01-17T08:26:58.756Z,64.41
2023-01-17T08:29:02.225Z,65.14
2023-01-17T08:31:10.959Z,64.94
2023-01-17T08:33:13.559Z,65.45
2023-01-17T08:35:16.177Z,65.37
2023-01-17T08:37:18.844Z,65.89
2023-01-17T08:39:21.781Z,65.58
2023-01-17T08:41:27.202Z,65.83
2023-01-17T08:43:29.800Z,65.52
2023-01-17T08:45:32.381Z,65.31
2023-01-17T08:47:36.604Z,64.88
2023-01-17T08:49:39.368Z,64.83
2023-01-17T08:51:41.992Z,63.59
2023-01-17T08:53:44.556Z,62.24
2023-01-17T08:55:47.126Z,60.83
2023-01-17T08:57:49.688Z,60.28
2023-01-17T08:59:52.292Z,60.66
2023-01-17T09:01:58.177Z,60.20
2023-01-17T09:04:03.268Z,60.45
2023-01-17T09:06:07.465Z,60.64
2023-01-17T09:08:10.045Z,60.93
2023-01-17T09:10:12.781Z,60.52
2023-01-17T09:12:15.467Z,59.89
2023-01-17T09:14:18.033Z,59.69
2023-01-17T09:16:20.747Z,59.78
2023-01-17T09:18:23.355Z,60.18
2023-01-17T09:20:30.102Z,60.88
2023-01-17T09:22:33.624Z,60.85
2023-01-17T09:24:36.159Z,60.78
2023-01-17T09:26:38.849Z,60.92
2023-01-17T09:28:42.676Z,60.65
2023-01-17T09:30:45.372Z,60.84
2023-01-17T09:32:53.148Z,61.05
2023-01-17T09:34:57.842Z,60.98
2023-01-17T09:37:01.763Z,61.15
2023-01-17T09:39:05.040Z,61.09
2023-01-17T09:41:27.552Z,61.18
2023-01-17T09:43:40.778Z,60.92
2023-01-17T09:45:43.513Z,60.73
2023-01-17T09:47:51.092Z,60.85
2023-01-17T09:49:57.359Z,60.61
2023-01-17T09:52:01.927Z,59.57
2023-01-17T09:54:05.258Z,59.27
2023-01-17T09:56:13.246Z,59.59
2023-01-17T09:58:21.425Z,59.20
2023-01-17T10:00:36.769Z,59.16
2023-01-17T10:02:55.238Z,59.09
2023-01-17T10:05:17.931Z,58.87
2023-01-17T10:07:34.242Z,58.62
2023-01-17T10:09:54.081Z,57.86
2023-01-17T10:12:10.250Z,58.26
2023-01-17T10:14:35.269Z,58.04
2023-01-17T10:16:47.163Z,58.17
2023-01-17T10:19:14.609Z,58.07
2023-01-17T10:21:25.802Z,57.89
2023-01-17T10:23:55.414Z,58.03
2023-01-17T10:26:01.434Z,57.07
2023-01-17T10:28:09.865Z,57.31
2023-01-17T10:30:18.332Z,57.11
2023-01-17T10:32:25.079Z,57.03
2023-01-17T10:34:33.909Z,57.63
2023-01-17T10:36:41.149Z,57.36
2023-01-17T10:38:49.117Z,56.80
2023-01-17T10:40:57.653Z,56.26
2023-01-17T10:43:05.840Z,56.18
2023-01-17T10:45:17.266Z,56.27
2023-01-17T10:47:22.488Z,56.50
2023-01-17T10:49:27.160Z,56.04
2023-01-17T10:51:59.746Z,55.75
2023-01-17T10:54:17.805Z,55.66
2023-01-17T10:56:26.718Z,54.71
2023-01-17T10:58:29.323Z,54.46
2023-01-17T11:00:44.985Z,54.46
2023-01-17T11:02:50.590Z,54.01
2023-01-17T11:04:55.406Z,54.42
2023-01-17T11:07:12.175Z,54.72
2023-01-17T11:09:17.075Z,54.98
2023-01-17T11:11:21.322Z,55.07
2023-01-17T11:13:29.060Z,54.51
2023-01-17T11:15:33.876Z,54.85
2023-01-17T11:17:38.376Z,54.65
2023-01-17T11:19:45.287Z,54.60
2023-01-17T11:21:53.039Z,54.80
2023-01-17T11:23:57.428Z,54.45
2023-01-17T11:26:04.656Z,54.39
2023-01-17T11:28:18.863Z,54.19
2023-01-17T11:30:23.898Z,54.13
2023-01-17T11:32:31.124Z,53.27
2023-01-17T11:34:33.742Z,52.73
2023-01-17T11:36:36.331Z,52.71
2023-01-17T11:38:38.877Z,52.75
2023-01-17T11:40:43.229Z,52.79
2023-01-17T11:42:47.118Z,52.98
2023-01-17T11:44:50.437Z,53.27
2023-01-17T11:47:19.045Z,53.19
2023-01-17T11:49:26.371Z,53.21
2023-01-17T11:51:31.277Z,53.19
2023-01-17T11:53:37.338Z,53.04
2023-01-17T11:55:40.629Z,53.22
2023-01-17T11:57:43.801Z,53.27
2023-01-17T11:59:48.893Z,53.38
2023-01-17T12:02:04.064Z,53.33
2023-01-17T12:04:20.850Z,53.33
2023-01-17T12:06:36.471Z,53.21
2023-01-17T12:09:03.080Z,53.30
2023-01-17T12:11:14.729Z,53.40
2023-01-17T12:13:48.196Z,53.25
2023-01-17T12:16:23.099Z,53.22
2023-01-17T12:18:37.074Z,53.12
2023-01-17T12:20:48.761Z,52.93
2023-01-17T12:23:19.084Z,52.53
2023-01-17T12:25:29.202Z,52.39
2023-01-17T12:27:43.611Z,51.79
2023-01-17T12:30:03.366Z,51.75
2023-01-17T12:32:26.145Z,51.54
2023-01-17T12:34:34.311Z,51.31
2023-01-17T12:36:44.491Z,51.51
2023-01-17T12:38:49.163Z,51.40
2023-01-17T12:40:57.702Z,51.50
2023-01-17T12:43:06.754Z,51.48
2023-01-17T12:45:14.505Z,50.89
2023-01-17T12:47:20.986Z,50.94
2023-01-17T12:49:38.094Z,51.28
2023-01-17T12:51:44.202Z,50.98
2023-01-17T12:53:56.726Z,50.92
2023-01-17T12:56:04.781Z,50.76
2023-01-17T12:58:14.947Z,50.49
2023-01-17T13:00:23.052Z,50.68
2023-01-17T13:02:34.221Z,50.65
2023-01-17T13:04:57.297Z,50.63
2023-01-17T13:07:10.932Z,50.72
2023-01-17T13:09:19.963Z,50.81
2023-01-17T13:11:29.415Z,50.90
2023-01-17T13:13:34.481Z,51.11
2023-01-17T13:15:40.819Z,51.27
2023-01-17T13:17:49.331Z,51.14
2023-01-17T13:19:58.753Z,51.42
2023-01-17T13:22:04.329Z,51.49
2023-01-17T13:24:26.729Z,51.39
2023-01-17T13:26:39.257Z,51.38
2023-01-17T13:28:54.880Z,51.73
2023-01-17T13:31:21.547Z,51.66
2023-01-17T13:33:36.460Z,51.27
2023-01-17T13:35:43.548Z,51.33
2023-01-17T13:38:21.773Z,51.34
2023-01-17T13:40:35.122Z,51.36
2023-01-17T13:42:53.521Z,51.25
2023-01-17T13:44:57.873Z,50.98
2023-01-17T13:47:04.085Z,51.23
2023-01-17T13:54:08.548Z,50.67
2023-01-17T13:56:14.650Z,50.42
2023-01-17T13:58:30.035Z,50.20
2023-01-17T14:00:59.993Z,50.37
2023-01-17T14:03:02.689Z,50.29
2023-01-17T14:05:13.341Z,50.39
2023-01-17T14:07:26.775Z,50.50
2023-01-17T14:09:41.045Z,50.54
2023-01-17T14:11:57.596Z,50.41
2023-01-17T14:14:15.900Z,50.26
2023-01-17T14:16:27.945Z,50.38
2023-01-17T14:18:34.455Z,50.73
2023-01-17T14:20:52.105Z,50.32
2023-01-17T14:22:57.561Z,49.80
2023-01-17T14:25:09.799Z,49.33
2023-01-17T14:27:22.873Z,49.54
2023-01-17T14:29:49.241Z,49.56
2023-01-17T14:32:01.653Z,49.78
2023-01-17T14:34:13.435Z,49.00
2023-01-17T14:36:25.005Z,48.80
2023-01-17T14:38:29.530Z,48.35
2023-01-17T14:40:36.598Z,48.16
2023-01-17T14:42:39.393Z,48.42
2023-01-17T14:44:45.694Z,48.16
2023-01-17T14:46:49.927Z,47.97
2023-01-17T14:48:53.911Z,47.88
2023-01-17T14:50:59.990Z,47.54
2023-01-17T14:53:17.151Z,47.83
2023-01-17T14:55:21.514Z,47.85
2023-01-17T14:57:29.120Z,48.05
2023-01-17T14:59:31.750Z,48.18
2023-01-17T15:01:36.226Z,47.98
2023-01-17T15:03:45.778Z,47.65
2023-01-17T15:05:50.965Z,47.95
2023-01-17T15:07:56.190Z,48.11
2023-01-17T15:09:59.002Z,48.31
2023-01-17T15:12:02.921Z,48.15
2023-01-17T15:14:07.794Z,48.02
2023-01-17T15:16:20.306Z,48.25
2023-01-17T15:18:29.397Z,48.36
2023-01-17T15:20:32.070Z,48.30
2023-01-17T15:22:34.862Z,48.44
2023-01-17T15:24:44.485Z,48.16
2023-01-17T15:26:48.165Z,47.89
2023-01-17T15:28:51.815Z,47.89
2023-01-17T15:31:05.726Z,47.90
2023-01-17T15:33:17.083Z,47.98
2023-01-17T15:35:20.938Z,48.27
2023-01-17T15:37:28.242Z,48.75
2023-01-17T15:39:32.931Z,48.93
2023-01-17T15:41:38.435Z,48.71
2023-01-17T15:43:42.681Z,48.54
2023-01-17T15:45:55.349Z,48.44
2023-01-17T15:48:19.719Z,48.65
2023-01-17T15:50:30.975Z,48.56
2023-01-17T15:52:33.520Z,48.38
2023-01-17T15:54:43.270Z,48.14
2023-01-17T15:56:45.806Z,48.22
2023-01-17T15:58:50.224Z,48.29
2023-01-17T16:00:52.928Z,48.25
2023-01-17T16:02:57.068Z,48.31
2023-01-17T16:05:03.052Z,48.33
2023-01-17T16:07:12.360Z,48.45
2023-01-17T16:09:22.515Z,48.61
2023-01-17T16:11:25.069Z,48.64
2023-01-17T16:13:27.661Z,48.41
2023-01-17T16:15:30.630Z,48.65
2023-01-17T16:17:33.237Z,51.09
2023-01-17T16:19:36.358Z,52.25
2023-01-17T16:21:40.690Z,53.04
2023-01-17T16:23:43.391Z,53.28
2023-01-17T16:25:46.201Z,54.25
2023-01-17T16:27:49.651Z,54.82
2023-01-17T16:29:52.414Z,55.66
2023-01-17T16:31:54.984Z,56.89
2023-01-17T16:33:57.630Z,58.14
2023-01-17T16:36:00.253Z,59.29
2023-01-17T16:38:07.021Z,60.03
2023-01-17T16:40:10.935Z,60.83
2023-01-17T16:42:13.782Z,61.30
2023-01-17T16:44:17.046Z,62.21
2023-01-17T16:46:21.492Z,62.55
2023-01-17T16:48:24.116Z,62.89
2023-01-17T16:50:26.811Z,63.05
2023-01-17T16:52:29.463Z,63.29
2023-01-17T16:54:33.346Z,63.87
2023-01-17T16:56:35.896Z,64.22
2023-01-17T16:58:38.580Z,64.78
2023-01-17T17:00:41.312Z,64.90
2023-01-17T17:02:44.108Z,64.84
2023-01-17T17:04:46.881Z,65.56
2023-01-17T17:06:49.423Z,65.94
2023-01-17T17:08:52.007Z,66.29
2023-01-17T17:10:56.106Z,66.66
2023-01-17T17:13:00.475Z,66.93
2023-01-17T17:15:05.450Z,67.50
2023-01-17T17:17:08.117Z,67.30
2023-01-17T17:19:11.348Z,67.58
2023-01-17T17:21:14.606Z,67.75
2023-01-17T17:23:17.150Z,67.80
2023-01-17T17:25:20.220Z,68.13
2023-01-17T17:27:26.537Z,68.29
2023-01-17T17:29:29.090Z,68.03
2023-01-17T17:31:31.772Z,68.46
2023-01-17T17:33:34.925Z,68.59
2023-01-17T17:35:37.491Z,69.09
2023-01-17T17:37:40.010Z,69.09
2023-01-17T17:39:42.619Z,69.49
2023-01-17T17:41:46.462Z,69.28
2023-01-17T17:43:51.322Z,69.41
2023-01-17T17:45:53.942Z,69.20
2023-01-17T17:47:56.631Z,69.12
2023-01-17T17:49:59.198Z,69.50
2023-01-17T17:52:04.825Z,68.85
2023-01-17T17:54:10.001Z,69.74
2023-01-17T17:56:12.626Z,69.56
2023-01-17T17:58:15.281Z,69.97
2023-01-17T18:00:21.070Z,69.74
2023-01-17T18:02:23.706Z,70.10
2023-01-17T18:04:26.905Z,69.85
2023-01-17T18:06:29.549Z,70.44
2023-01-17T18:08:32.633Z,70.55
2023-01-17T18:10:35.192Z,70.60
2023-01-17T18:12:37.733Z,70.24
2023-01-17T18:14:40.286Z,70.30
2023-01-17T18:16:45.303Z,70.43
2023-01-17T18:18:50.944Z,70.83
2023-01-17T18:20:53.566Z,70.63
2023-01-17T18:22:56.135Z,70.76
2023-01-17T18:24:58.737Z,70.94
2023-01-17T18:27:01.303Z,70.86
2023-01-17T18:29:05.457Z,71.07
2023-01-17T18:31:08.329Z,70.58
2023-01-17T18:33:13.065Z,71.22
2023-01-17T18:35:15.674Z,71.38
2023-01-17T18:37:18.253Z,71.57
2023-01-17T18:39:24.341Z,71.11
2023-01-17T18:41:28.890Z,71.07
2023-01-17T18:43:31.487Z,71.56
2023-01-17T18:45:34.049Z,71.47
2023-01-17T18:47:38.716Z,71.51
2023-01-17T18:49:42.824Z,71.63
2023-01-17T18:51:47.561Z,71.77
2023-01-17T18:53:50.449Z,71.05
2023-01-17T18:55:56.884Z,71.31
2023-01-17T18:57:59.683Z,71.85
2023-01-17T19:00:02.230Z,71.65
2023-01-17T19:02:04.855Z,71.63
2023-01-17T19:04:07.437Z,71.52
2023-01-17T19:06:14.526Z,71.45
2023-01-17T19:08:17.429Z,71.59
2023-01-17T19:10:20.367Z,71.74
2023-01-17T19:12:22.898Z,71.52
2023-01-17T19:14:25.438Z,71.44
2023-01-17T19:16:30.511Z,72.08
2023-01-17T19:18:33.544Z,71.84
2023-01-17T19:20:36.413Z,72.08
2023-01-17T19:22:41.292Z,72.40
2023-01-17T19:24:43.908Z,71.93
2023-01-17T19:26:47.700Z,72.32
2023-01-17T19:28:51.635Z,72.67
2023-01-17T19:31:02.492Z,72.04
2023-01-17T19:33:05.153Z,72.17
2023-01-17T19:35:09.039Z,72.09
2023-01-17T19:37:11.621Z,72.40
2023-01-17T19:39:15.546Z,72.53
2023-01-17T19:41:20.172Z,71.92
2023-01-17T19:43:23.350Z,71.90
2023-01-17T19:45:26.024Z,72.14
2023-01-17T19:47:28.619Z,72.28
2023-01-17T19:49:32.084Z,72.11
2023-01-17T19:51:34.733Z,72.16
2023-01-17T19:53:38.118Z,72.06
2023-01-17T19:55:42.091Z,72.53
2023-01-17T19:57:44.660Z,72.70
2023-01-17T19:59:47.986Z,72.49
2023-01-17T20:01:50.776Z,72.22
2023-01-17T20:03:54.953Z,72.32
2023-01-17T20:05:58.633Z,72.13
2023-01-17T20:08:02.021Z,72.40
2023-01-17T20:10:05.081Z,72.47
2023-01-17T20:12:10.706Z,72.40
2023-01-17T20:14:16.621Z,72.81
2023-01-17T20:16:19.320Z,73.06
2023-01-17T20:18:22.457Z,73.00
2023-01-17T20:20:25.062Z,72.90
2023-01-17T20:22:27.644Z,72.95
2023-01-17T20:24:30.245Z,72.99
2023-01-17T20:26:37.282Z,73.03
2023-01-17T20:28:42.958Z,72.85
2023-01-17T20:30:45.576Z,72.49
2023-01-17T20:32:48.165Z,72.81
2023-01-17T20:34:51.341Z,73.05
2023-01-17T20:36:57.430Z,73.01
2023-01-17T20:39:00.916Z,72.64
2023-01-17T20:41:03.581Z,72.55
2023-01-17T20:43:06.192Z,72.78
2023-01-17T20:45:11.038Z,72.76
2023-01-17T20:47:13.600Z,73.23
2023-01-17T20:49:19.256Z,72.87
2023-01-17T20:51:23.135Z,72.74
2023-01-17T20:53:25.755Z,72.94
2023-01-17T20:55:28.311Z,72.86
2023-01-17T20:57:32.476Z,72.53
2023-01-17T20:59:35.032Z,72.92
2023-01-17T21:01:39.572Z,73.04
2023-01-17T21:03:42.328Z,72.85
2023-01-17T21:05:44.863Z,72.62
2023-01-17T21:07:47.406Z,72.70
2023-01-17T21:09:50.007Z,73.10
2023-01-17T21:11:54.321Z,73.28
2023-01-17T21:13:57.337Z,72.63
2023-01-17T21:16:00.207Z,72.78
2023-01-17T21:18:04.281Z,73.44
2023-01-17T21:20:08.028Z,72.85
2023-01-17T21:22:11.210Z,72.88
2023-01-17T21:24:18.337Z,73.68
2023-01-17T21:26:22.474Z,73.30
2023-01-17T21:28:26.386Z,73.26
2023-01-17T21:30:29.091Z,72.91
2023-01-17T21:32:31.729Z,73.00
2023-01-17T21:34:35.974Z,72.88
2023-01-17T21:36:40.198Z,72.95
2023-01-17T21:38:42.792Z,73.38
2023-01-17T21:40:45.881Z,73.01
2023-01-17T21:42:48.462Z,73.60
2023-01-17T21:44:51.058Z,73.39
2023-01-17T21:46:56.350Z,73.70
2023-01-17T21:48:59.130Z,73.71
2023-01-17T21:51:06.474Z,73.84
2023-01-17T21:53:10.043Z,73.11
2023-01-17T21:55:30.201Z,73.54
2023-01-17T21:57:50.432Z,73.48
2023-01-17T21:59:53.015Z,73.14
2023-01-17T22:01:55.644Z,72.98
2023-01-17T22:03:59.854Z,73.06
2023-01-17T22:06:02.474Z,73.42
2023-01-17T22:08:12.728Z,73.38
2023-01-17T22:10:15.518Z,73.58
2023-01-17T22:12:18.041Z,73.72
2023-01-17T22:14:20.882Z,73.38
2023-01-17T22:16:25.300Z,73.84
2023-01-17T22:18:28.727Z,73.49
2023-01-17T22:20:31.293Z,73.46
2023-01-17T22:22:34.206Z,74.09
2023-01-17T22:24:38.143Z,73.91
2023-01-17T22:26:42.861Z,74.30
2023-01-17T22:28:45.935Z,74.18
2023-01-17T22:30:48.535Z,73.89
2023-01-17T22:32:51.227Z,74.27
2023-01-17T22:34:53.807Z,73.56
2023-01-17T22:36:56.358Z,73.71
2023-01-17T22:38:59.139Z,73.80
2023-01-17T22:41:07.775Z,74.15
2023-01-17T22:43:10.913Z,74.14
2023-01-17T22:45:14.112Z,74.18
2023-01-17T22:47:16.678Z,73.87
2023-01-17T22:49:23.245Z,73.56
2023-01-17T22:51:28.599Z,73.73
2023-01-17T22:53:31.697Z,73.56
2023-01-17T22:55:34.252Z,73.79
2023-01-17T22:57:38.389Z,73.48
2023-01-17T22:59:40.982Z,74.33
2023-01-17T23:01:43.521Z,73.89
2023-01-17T23:03:47.214Z,74.46
2023-01-17T23:05:49.851Z,74.16
2023-01-17T23:07:52.438Z,73.96
2023-01-17T23:09:55.005Z,74.40
2023-01-17T23:11:56.681Z,73.89
2023-01-17T23:14:00.452Z,73.88
2023-01-17T23:16:23.307Z,73.84
2023-01-17T23:18:43.234Z,74.16
2023-01-17T23:20:45.871Z,73.86
2023-01-17T23:22:48.441Z,74.50
2023-01-17T23:24:52.775Z,73.73
2023-01-17T23:27:09.236Z,74.31
2023-01-17T23:29:13.147Z,73.90
2023-01-17T23:31:15.710Z,74.28
2023-01-17T23:33:19.355Z,74.18
2023-01-17T23:35:23.318Z,74.03
2023-01-17T23:37:50.903Z,74.59
2023-01-17T23:39:53.489Z,74.49
2023-01-17T23:42:13.762Z,74.03
2023-01-17T23:44:17.713Z,74.46
2023-01-17T23:46:20.607Z,74.16
2023-01-17T23:48:25.706Z,74.06
2023-01-17T23:50:28.294Z,74.60
2023-01-17T23:52:30.830Z,74.18
2023-01-17T23:54:35.088Z,74.07
2023-01-17T23:56:37.796Z,74.07
2023-01-17T23:58:40.455Z,74.04
